LAN368 SCSE-SCFA
Flight info
| Callsign | LAN368 |
|---|---|
| Flight time | 1h 3m |
| Altitude | 32000 |
| Route | VUGUS UQ802 LONEK LONEK2A |
| Aircraft | A320/M-SDE3FGHIRWY/LB1 |
Departure
| Time | 2026-04-23 18:06 |
|---|---|
| Airport | La Florida Airport (SCSE) |
Arrival
| Time | 2026-04-23 19:09 |
|---|---|
| Airport | Andrés Sabella Gálvez International Airport (SCFA) |
| Time | Latitude | Longitude | Altitude | Speed | Heading |
|---|---|---|---|---|---|
| 2026-04-23 17:08 | -29.91667 | -71.20340 | 480 ft | 0 kts | 206° |
| 2026-04-23 17:56 | -29.91672 | -71.20334 | 472 ft | 1 kts | 140° |
| 2026-04-23 17:56 | -29.91671 | -71.20328 | 472 ft | 1 kts | 81° |
| 2026-04-23 17:57 | -29.91659 | -71.20328 | 474 ft | 5 kts | 356° |
| 2026-04-23 17:57 | -29.91605 | -71.20305 | 477 ft | 9 kts | 26° |
| 2026-04-23 17:57 | -29.91529 | -71.20227 | 479 ft | 6 kts | 91° |
| 2026-04-23 17:58 | -29.91543 | -71.20185 | 479 ft | 6 kts | 115° |
| 2026-04-23 17:58 | -29.91563 | -71.20139 | 474 ft | 8 kts | 116° |
| 2026-04-23 17:58 | -29.91593 | -71.20069 | 472 ft | 11 kts | 116° |
| 2026-04-23 17:58 | -29.91618 | -71.20013 | 471 ft | 12 kts | 116° |
| 2026-04-23 17:59 | -29.91670 | -71.19890 | 475 ft | 14 kts | 116° |
| 2026-04-23 17:59 | -29.91700 | -71.19821 | 471 ft | 15 kts | 116° |
| 2026-04-23 17:59 | -29.91765 | -71.19669 | 474 ft | 16 kts | 115° |
| 2026-04-23 17:59 | -29.91815 | -71.19552 | 478 ft | 17 kts | 116° |
| 2026-04-23 18:00 | -29.91869 | -71.19427 | 476 ft | 18 kts | 117° |
| 2026-04-23 18:00 | -29.91921 | -71.19303 | 475 ft | 16 kts | 116° |
| 2026-04-23 18:00 | -29.91968 | -71.19192 | 472 ft | 15 kts | 116° |
| 2026-04-23 18:00 | -29.91995 | -71.19141 | 476 ft | 9 kts | 131° |
| 2026-04-23 18:01 | -29.92049 | -71.19089 | 472 ft | 3 kts | 113° |
| 2026-04-23 18:01 | -29.92042 | -71.19076 | 474 ft | 2 kts | 51° |
| 2026-04-23 18:01 | -29.92031 | -71.19068 | 474 ft | 1 kts | 24° |
| 2026-04-23 18:01 | -29.92025 | -71.19068 | 472 ft | 1 kts | 2° |
| 2026-04-23 18:02 | -29.92016 | -71.19083 | 472 ft | 4 kts | 296° |
| 2026-04-23 18:02 | -29.92013 | -71.19089 | 473 ft | 0 kts | 296° |
| 2026-04-23 18:05 | -29.91968 | -71.19195 | 477 ft | 49 kts | 296° |
| 2026-04-23 18:05 | -29.91702 | -71.19818 | 473 ft | 121 kts | 296° |
| 2026-04-23 18:05 | -29.91244 | -71.20832 | 760 ft | 151 kts | 298° |
| 2026-04-23 18:06 | -29.90723 | -71.21889 | 1529 ft | 151 kts | 298° |
| 2026-04-23 18:06 | -29.90185 | -71.22988 | 1994 ft | 167 kts | 299° |
| 2026-04-23 18:06 | -29.89436 | -71.24107 | 2201 ft | 189 kts | 325° |
| 2026-04-23 18:06 | -29.88134 | -71.24606 | 2351 ft | 210 kts | 353° |
| 2026-04-23 18:07 | -29.86624 | -71.24706 | 2483 ft | 231 kts | 358° |
| 2026-04-23 18:07 | -29.84936 | -71.24747 | 2650 ft | 254 kts | 358° |
| 2026-04-23 18:07 | -29.83132 | -71.24667 | 3054 ft | 263 kts | 3° |
| 2026-04-23 18:07 | -29.81289 | -71.24525 | 3607 ft | 268 kts | 4° |
| 2026-04-23 18:08 | -29.79425 | -71.24377 | 4523 ft | 269 kts | 4° |
| 2026-04-23 18:08 | -29.77552 | -71.24225 | 5432 ft | 270 kts | 3° |
| 2026-04-23 18:08 | -29.75672 | -71.24052 | 6342 ft | 272 kts | 4° |
| 2026-04-23 18:08 | -29.73780 | -71.23868 | 7177 ft | 274 kts | 4° |
| 2026-04-23 18:09 | -29.71884 | -71.23623 | 8055 ft | 274 kts | 9° |
| 2026-04-23 18:09 | -29.70016 | -71.23201 | 8956 ft | 273 kts | 11° |
| 2026-04-23 18:09 | -29.68158 | -71.22739 | 9899 ft | 272 kts | 11° |
| 2026-04-23 18:09 | -29.66296 | -71.22260 | 10550 ft | 282 kts | 11° |
| 2026-04-23 18:10 | -29.64304 | -71.21746 | 10776 ft | 305 kts | 11° |
| 2026-04-23 18:10 | -29.62179 | -71.21202 | 11208 ft | 319 kts | 11° |
| 2026-04-23 18:10 | -29.59990 | -71.20647 | 11840 ft | 325 kts | 11° |
| 2026-04-23 18:10 | -29.57759 | -71.20082 | 12488 ft | 331 kts | 11° |
| 2026-04-23 18:11 | -29.55493 | -71.19512 | 13146 ft | 336 kts | 11° |
| 2026-04-23 18:11 | -29.53188 | -71.18936 | 13794 ft | 341 kts | 10° |
| 2026-04-23 18:11 | -29.50854 | -71.18355 | 14413 ft | 345 kts | 10° |
| 2026-04-23 18:11 | -29.48528 | -71.17775 | 15015 ft | 349 kts | 10° |
| 2026-04-23 18:12 | -29.46143 | -71.17183 | 15590 ft | 353 kts | 10° |
| 2026-04-23 18:12 | -29.43732 | -71.16585 | 16209 ft | 357 kts | 10° |
| 2026-04-23 18:12 | -29.41288 | -71.15980 | 16809 ft | 361 kts | 9° |
| 2026-04-23 18:12 | -29.38816 | -71.15367 | 17399 ft | 365 kts | 9° |
| 2026-04-23 18:13 | -29.36321 | -71.14747 | 17956 ft | 369 kts | 9° |
| 2026-04-23 18:13 | -29.33801 | -71.14122 | 18506 ft | 372 kts | 9° |
| 2026-04-23 18:13 | -29.31257 | -71.13487 | 19010 ft | 376 kts | 9° |
| 2026-04-23 18:13 | -29.28696 | -71.12846 | 19534 ft | 378 kts | 9° |
| 2026-04-23 18:14 | -29.26119 | -71.12203 | 20058 ft | 381 kts | 8° |
| 2026-04-23 18:14 | -29.23523 | -71.11557 | 20547 ft | 383 kts | 8° |
| 2026-04-23 18:14 | -29.20909 | -71.10910 | 21037 ft | 385 kts | 8° |
| 2026-04-23 18:14 | -29.18281 | -71.10258 | 21537 ft | 388 kts | 8° |
| 2026-04-23 18:15 | -29.15631 | -71.09599 | 22041 ft | 390 kts | 8° |
| 2026-04-23 18:15 | -29.12969 | -71.08935 | 22536 ft | 393 kts | 7° |
| 2026-04-23 18:15 | -29.10291 | -71.08270 | 23018 ft | 395 kts | 7° |
| 2026-04-23 18:15 | -29.07595 | -71.07603 | 23494 ft | 397 kts | 7° |
| 2026-04-23 18:16 | -29.04915 | -71.06938 | 23898 ft | 400 kts | 7° |
| 2026-04-23 18:16 | -29.02192 | -71.06262 | 24243 ft | 402 kts | 6° |
| 2026-04-23 18:16 | -28.99447 | -71.05579 | 24620 ft | 404 kts | 6° |
| 2026-04-23 18:17 | -28.93926 | -71.04208 | 25354 ft | 408 kts | 5° |
| 2026-04-23 18:17 | -28.91148 | -71.03525 | 25703 ft | 410 kts | 5° |
| 2026-04-23 18:17 | -28.88353 | -71.02839 | 26065 ft | 411 kts | 5° |
| 2026-04-23 18:17 | -28.85549 | -71.02153 | 26393 ft | 413 kts | 5° |
| 2026-04-23 18:18 | -28.82729 | -71.01462 | 26680 ft | 415 kts | 4° |
| 2026-04-23 18:18 | -28.79899 | -71.00766 | 27022 ft | 417 kts | 4° |
| 2026-04-23 18:18 | -28.77053 | -71.00060 | 27379 ft | 420 kts | 4° |
| 2026-04-23 18:18 | -28.74189 | -70.99349 | 27714 ft | 422 kts | 4° |
| 2026-04-23 18:19 | -28.71306 | -70.98638 | 27993 ft | 425 kts | 4° |
| 2026-04-23 18:19 | -28.68404 | -70.97927 | 28328 ft | 428 kts | 3° |
| 2026-04-23 18:19 | -28.65481 | -70.97212 | 28669 ft | 430 kts | 3° |
| 2026-04-23 18:19 | -28.62546 | -70.96490 | 28983 ft | 433 kts | 3° |
| 2026-04-23 18:20 | -28.59594 | -70.95759 | 29314 ft | 435 kts | 3° |
| 2026-04-23 18:20 | -28.56625 | -70.95026 | 29626 ft | 437 kts | 2° |
| 2026-04-23 18:20 | -28.53646 | -70.94289 | 29927 ft | 440 kts | 2° |
| 2026-04-23 18:20 | -28.50688 | -70.93565 | 30198 ft | 440 kts | 1° |
| 2026-04-23 18:21 | -28.47681 | -70.93133 | 30427 ft | 434 kts | 355° |
| 2026-04-23 18:21 | -28.44662 | -70.92819 | 30652 ft | 436 kts | 355° |
| 2026-04-23 18:21 | -28.41637 | -70.92511 | 30840 ft | 437 kts | 354° |
| 2026-04-23 18:21 | -28.38597 | -70.92204 | 31060 ft | 440 kts | 354° |
| 2026-04-23 18:22 | -28.35542 | -70.91892 | 31330 ft | 441 kts | 354° |
| 2026-04-23 18:22 | -28.32489 | -70.91576 | 31694 ft | 440 kts | 353° |
| 2026-04-23 18:22 | -28.29448 | -70.91255 | 32004 ft | 439 kts | 354° |
| 2026-04-23 18:22 | -28.26413 | -70.90933 | 32088 ft | 433 kts | 353° |
| 2026-04-23 18:23 | -28.17635 | -70.89972 | 32098 ft | 418 kts | 353° |
| 2026-04-23 18:24 | -28.08923 | -70.89078 | 32099 ft | 420 kts | 353° |
| 2026-04-23 18:25 | -28.00156 | -70.88161 | 32098 ft | 429 kts | 353° |
| 2026-04-23 18:25 | -27.94101 | -70.87535 | 32089 ft | 444 kts | 353° |
| 2026-04-23 18:26 | -27.87864 | -70.86865 | 32061 ft | 454 kts | 353° |
| 2026-04-23 18:26 | -27.81553 | -70.86172 | 32096 ft | 457 kts | 354° |
| 2026-04-23 18:27 | -27.75266 | -70.85493 | 32096 ft | 457 kts | 353° |
| 2026-04-23 18:27 | -27.68942 | -70.84827 | 32098 ft | 457 kts | 353° |
| 2026-04-23 18:28 | -27.62618 | -70.84165 | 32096 ft | 456 kts | 353° |
| 2026-04-23 18:28 | -27.56295 | -70.83502 | 32056 ft | 456 kts | 353° |
| 2026-04-23 18:29 | -27.49962 | -70.82837 | 32068 ft | 457 kts | 353° |
| 2026-04-23 18:29 | -27.43627 | -70.82175 | 32073 ft | 458 kts | 353° |
| 2026-04-23 18:30 | -27.37268 | -70.81513 | 32068 ft | 460 kts | 353° |
| 2026-04-23 18:30 | -27.30918 | -70.80850 | 32072 ft | 462 kts | 353° |
| 2026-04-23 18:31 | -27.24484 | -70.80167 | 32087 ft | 466 kts | 353° |
| 2026-04-23 18:31 | -27.18014 | -70.79480 | 32094 ft | 467 kts | 353° |
| 2026-04-23 18:32 | -27.11558 | -70.78802 | 32094 ft | 466 kts | 353° |
| 2026-04-23 18:32 | -27.05096 | -70.78129 | 32095 ft | 466 kts | 353° |
| 2026-04-23 18:33 | -26.98638 | -70.77459 | 32095 ft | 466 kts | 353° |
| 2026-04-23 18:33 | -26.92183 | -70.76788 | 32094 ft | 466 kts | 353° |
| 2026-04-23 18:34 | -26.85726 | -70.76109 | 32093 ft | 466 kts | 353° |
| 2026-04-23 18:34 | -26.79268 | -70.75434 | 32094 ft | 466 kts | 353° |
| 2026-04-23 18:35 | -26.72859 | -70.74765 | 32062 ft | 466 kts | 353° |
| 2026-04-23 18:35 | -26.66401 | -70.74093 | 32052 ft | 467 kts | 354° |
| 2026-04-23 18:36 | -26.59910 | -70.73131 | 32062 ft | 473 kts | 356° |
| 2026-04-23 18:36 | -26.53391 | -70.71915 | 32068 ft | 475 kts | 357° |
| 2026-04-23 18:37 | -26.46865 | -70.70713 | 32072 ft | 474 kts | 356° |
| 2026-04-23 18:37 | -26.40357 | -70.69762 | 32055 ft | 469 kts | 353° |
| 2026-04-23 18:38 | -26.33861 | -70.69263 | 32063 ft | 467 kts | 351° |
| 2026-04-23 18:38 | -26.27363 | -70.68838 | 32070 ft | 468 kts | 352° |
| 2026-04-23 18:39 | -26.20860 | -70.68301 | 32074 ft | 469 kts | 353° |
| 2026-04-23 18:39 | -26.14344 | -70.67701 | 32083 ft | 470 kts | 353° |
| 2026-04-23 18:40 | -26.07824 | -70.67106 | 32050 ft | 470 kts | 353° |
| 2026-04-23 18:40 | -26.01302 | -70.66541 | 32055 ft | 470 kts | 353° |
| 2026-04-23 18:41 | -25.94806 | -70.65988 | 32070 ft | 471 kts | 353° |
| 2026-04-23 18:41 | -25.88267 | -70.65421 | 32064 ft | 471 kts | 353° |
| 2026-04-23 18:42 | -25.81724 | -70.64845 | 32044 ft | 471 kts | 353° |
| 2026-04-23 18:42 | -25.75181 | -70.64275 | 32053 ft | 472 kts | 353° |
| 2026-04-23 18:43 | -25.68638 | -70.63706 | 32057 ft | 472 kts | 353° |
| 2026-04-23 18:43 | -25.62090 | -70.63143 | 32061 ft | 472 kts | 353° |
| 2026-04-23 18:44 | -25.55534 | -70.62577 | 32067 ft | 473 kts | 353° |
| 2026-04-23 18:44 | -25.48963 | -70.61997 | 32038 ft | 474 kts | 354° |
| 2026-04-23 18:45 | -25.42389 | -70.61424 | 32055 ft | 474 kts | 354° |
| 2026-04-23 18:45 | -25.35812 | -70.60861 | 32059 ft | 474 kts | 354° |
| 2026-04-23 18:46 | -25.29226 | -70.60296 | 32058 ft | 474 kts | 354° |
| 2026-04-23 18:46 | -25.22688 | -70.59730 | 32038 ft | 474 kts | 354° |
| 2026-04-23 18:47 | -25.16103 | -70.59158 | 32048 ft | 475 kts | 354° |
| 2026-04-23 18:47 | -25.09507 | -70.58587 | 32057 ft | 475 kts | 354° |
| 2026-04-23 18:48 | -25.02911 | -70.58026 | 32066 ft | 476 kts | 354° |
| 2026-04-23 18:48 | -24.96308 | -70.57462 | 32071 ft | 476 kts | 354° |
| 2026-04-23 18:49 | -24.89699 | -70.56893 | 32064 ft | 476 kts | 355° |
| 2026-04-23 18:49 | -24.84208 | -70.56419 | 32076 ft | 476 kts | 355° |
| 2026-04-23 18:50 | -24.78716 | -70.55988 | 32079 ft | 474 kts | 353° |
| 2026-04-23 18:50 | -24.70012 | -70.55955 | 32076 ft | 465 kts | 349° |
| 2026-04-23 18:50 | -24.66824 | -70.56039 | 31904 ft | 452 kts | 349° |
| 2026-04-23 18:51 | -24.64715 | -70.56090 | 31582 ft | 445 kts | 349° |
| 2026-04-23 18:51 | -24.60663 | -70.56163 | 30378 ft | 436 kts | 349° |
| 2026-04-23 18:51 | -24.58619 | -70.56188 | 29647 ft | 434 kts | 350° |
| 2026-04-23 18:51 | -24.55614 | -70.56215 | 28603 ft | 429 kts | 351° |
| 2026-04-23 18:52 | -24.52690 | -70.56227 | 27684 ft | 422 kts | 352° |
| 2026-04-23 18:52 | -24.49773 | -70.56234 | 26787 ft | 415 kts | 352° |
| 2026-04-23 18:52 | -24.46893 | -70.56242 | 26092 ft | 412 kts | 353° |
| 2026-04-23 18:52 | -24.44046 | -70.56254 | 25608 ft | 407 kts | 353° |
| 2026-04-23 18:53 | -24.41225 | -70.56271 | 25114 ft | 403 kts | 353° |
| 2026-04-23 18:53 | -24.38435 | -70.56292 | 24641 ft | 399 kts | 354° |
| 2026-04-23 18:53 | -24.35677 | -70.56316 | 24165 ft | 395 kts | 354° |
| 2026-04-23 18:53 | -24.32945 | -70.56340 | 23674 ft | 391 kts | 354° |
| 2026-04-23 18:54 | -24.30234 | -70.56358 | 23134 ft | 387 kts | 355° |
| 2026-04-23 18:54 | -24.27555 | -70.56373 | 22655 ft | 383 kts | 355° |
| 2026-04-23 18:54 | -24.24907 | -70.56387 | 22177 ft | 379 kts | 355° |
| 2026-04-23 18:54 | -24.22282 | -70.56403 | 21685 ft | 376 kts | 355° |
| 2026-04-23 18:55 | -24.19670 | -70.56396 | 21195 ft | 374 kts | 357° |
| 2026-04-23 18:55 | -24.17071 | -70.56321 | 20708 ft | 373 kts | 358° |
| 2026-04-23 18:55 | -24.14482 | -70.56206 | 20224 ft | 372 kts | 359° |
| 2026-04-23 18:55 | -24.11904 | -70.56078 | 19742 ft | 370 kts | 359° |
| 2026-04-23 18:56 | -24.09335 | -70.55953 | 19267 ft | 369 kts | 359° |
| 2026-04-23 18:56 | -24.06766 | -70.55837 | 18791 ft | 369 kts | 359° |
| 2026-04-23 18:56 | -24.04202 | -70.55729 | 18314 ft | 368 kts | 360° |
| 2026-04-23 18:56 | -24.01643 | -70.55627 | 17801 ft | 367 kts | 360° |
| 2026-04-23 18:57 | -23.99097 | -70.55530 | 17333 ft | 365 kts | 360° |
| 2026-04-23 18:57 | -23.96566 | -70.55435 | 16874 ft | 363 kts | 360° |
| 2026-04-23 18:57 | -23.94051 | -70.55342 | 16418 ft | 361 kts | 0° |
| 2026-04-23 18:57 | -23.91549 | -70.55250 | 15964 ft | 359 kts | 0° |
| 2026-04-23 18:58 | -23.89057 | -70.55155 | 15523 ft | 357 kts | 360° |
| 2026-04-23 18:58 | -23.86583 | -70.55061 | 15110 ft | 354 kts | 1° |
| 2026-04-23 18:58 | -23.84128 | -70.54966 | 14682 ft | 352 kts | 359° |
| 2026-04-23 18:58 | -23.81713 | -70.54872 | 14244 ft | 351 kts | 0° |
| 2026-04-23 18:59 | -23.79286 | -70.54776 | 13808 ft | 349 kts | 1° |
| 2026-04-23 18:59 | -23.76875 | -70.54681 | 13420 ft | 345 kts | 0° |
| 2026-04-23 18:59 | -23.74472 | -70.54589 | 12942 ft | 343 kts | 0° |
| 2026-04-23 18:59 | -23.72083 | -70.54495 | 12444 ft | 343 kts | 1° |
| 2026-04-23 19:00 | -23.69716 | -70.54402 | 12022 ft | 340 kts | 0° |
| 2026-04-23 19:00 | -23.67363 | -70.54312 | 11591 ft | 337 kts | 0° |
| 2026-04-23 19:00 | -23.65028 | -70.54222 | 11122 ft | 336 kts | 1° |
| 2026-04-23 19:00 | -23.62695 | -70.54133 | 10682 ft | 335 kts | 0° |
| 2026-04-23 19:01 | -23.60376 | -70.54043 | 10220 ft | 334 kts | 1° |
| 2026-04-23 19:01 | -23.58090 | -70.53956 | 10053 ft | 323 kts | 1° |
| 2026-04-23 19:01 | -23.55886 | -70.53871 | 9938 ft | 311 kts | 0° |
| 2026-04-23 19:01 | -23.53758 | -70.53788 | 9739 ft | 303 kts | 1° |
| 2026-04-23 19:02 | -23.51674 | -70.53708 | 9263 ft | 297 kts | 1° |
| 2026-04-23 19:02 | -23.49612 | -70.53594 | 8588 ft | 296 kts | 3° |
| 2026-04-23 19:02 | -23.47560 | -70.53406 | 7906 ft | 296 kts | 5° |
| 2026-04-23 19:02 | -23.45513 | -70.53185 | 7235 ft | 295 kts | 5° |
| 2026-04-23 19:03 | -23.43471 | -70.52953 | 6563 ft | 295 kts | 6° |
| 2026-04-23 19:03 | -23.41430 | -70.52723 | 5843 ft | 295 kts | 6° |
| 2026-04-23 19:03 | -23.39430 | -70.52505 | 5516 ft | 279 kts | 5° |
| 2026-04-23 19:03 | -23.37594 | -70.52309 | 5379 ft | 259 kts | 5° |
| 2026-04-23 19:04 | -23.35843 | -70.52127 | 5264 ft | 250 kts | 5° |
| 2026-04-23 19:04 | -23.34113 | -70.51950 | 5159 ft | 249 kts | 5° |
| 2026-04-23 19:04 | -23.32397 | -70.51764 | 5043 ft | 247 kts | 9° |
| 2026-04-23 19:04 | -23.30794 | -70.51110 | 4692 ft | 249 kts | 36° |
| 2026-04-23 19:05 | -23.29613 | -70.49770 | 4323 ft | 244 kts | 62° |
| 2026-04-23 19:05 | -23.29064 | -70.48084 | 4011 ft | 233 kts | 84° |
| 2026-04-23 19:05 | -23.29157 | -70.46369 | 3701 ft | 224 kts | 107° |
| 2026-04-23 19:05 | -23.29818 | -70.44878 | 3402 ft | 217 kts | 128° |
| 2026-04-23 19:06 | -23.30904 | -70.43792 | 3124 ft | 208 kts | 149° |
| 2026-04-23 19:06 | -23.32203 | -70.43225 | 2834 ft | 196 kts | 169° |
| 2026-04-23 19:06 | -23.33521 | -70.43170 | 2567 ft | 185 kts | 187° |
| 2026-04-23 19:06 | -23.34774 | -70.43332 | 2314 ft | 178 kts | 187° |
| 2026-04-23 19:07 | -23.35980 | -70.43481 | 2049 ft | 171 kts | 187° |
| 2026-04-23 19:07 | -23.37134 | -70.43621 | 1804 ft | 163 kts | 186° |
| 2026-04-23 19:07 | -23.38226 | -70.43753 | 1569 ft | 152 kts | 187° |
| 2026-04-23 19:07 | -23.39216 | -70.43876 | 1380 ft | 140 kts | 188° |
| 2026-04-23 19:08 | -23.40165 | -70.44016 | 1208 ft | 136 kts | 187° |
| 2026-04-23 19:08 | -23.41095 | -70.44127 | 1004 ft | 132 kts | 184° |
| 2026-04-23 19:08 | -23.42008 | -70.44209 | 782 ft | 131 kts | 187° |
| 2026-04-23 19:08 | -23.42910 | -70.44319 | 596 ft | 130 kts | 189° |
| 2026-04-23 19:09 | -23.43801 | -70.44431 | 472 ft | 124 kts | 186° |
| 2026-04-23 19:09 | -23.44536 | -70.44524 | 460 ft | 83 kts | 186° |
| 2026-04-23 19:09 | -23.44936 | -70.44573 | 461 ft | 33 kts | 186° |
| 2026-04-23 19:09 | -23.45105 | -70.44594 | 462 ft | 22 kts | 187° |
| 2026-04-23 19:10 | -23.45209 | -70.44571 | 464 ft | 13 kts | 115° |
| 2026-04-23 19:10 | -23.45221 | -70.44482 | 462 ft | 10 kts | 97° |
| 2026-04-23 19:10 | -23.45211 | -70.44420 | 459 ft | 8 kts | 41° |
| 2026-04-23 19:10 | -23.45161 | -70.44409 | 462 ft | 7 kts | 5° |
| 2026-04-23 19:11 | -23.45119 | -70.44404 | 462 ft | 6 kts | 6° |
| 2026-04-23 19:11 | -23.45085 | -70.44400 | 462 ft | 4 kts | 7° |
| 2026-04-23 19:11 | -23.45045 | -70.44394 | 462 ft | 9 kts | 7° |
| 2026-04-23 19:11 | -23.44986 | -70.44371 | 462 ft | 11 kts | 53° |
| 2026-04-23 19:12 | -23.44985 | -70.44318 | 462 ft | 9 kts | 99° |
| 2026-04-23 19:12 | -23.44914 | -70.44268 | 460 ft | 10 kts | 6° |
| 2026-04-23 19:12 | -23.44846 | -70.44259 | 459 ft | 10 kts | 7° |
| 2026-04-23 19:12 | -23.44820 | -70.44227 | 462 ft | 6 kts | 105° |
| 2026-04-23 19:13 | -23.44826 | -70.44191 | 460 ft | 3 kts | 97° |
| 2026-04-23 19:13 | -23.44827 | -70.44183 | 462 ft | 0 kts | 97° |
| 2026-04-23 19:13 | -23.44827 | -70.44181 | 462 ft | 1 kts | 97° |
| 2026-04-23 19:49 | -23.44826 | -70.44191 | 460 ft | 4 kts | 96° |
| 2026-04-23 19:49 | -23.44824 | -70.44220 | 457 ft | 4 kts | 88° |
| 2026-04-23 19:49 | -23.44828 | -70.44248 | 458 ft | 4 kts | 54° |
| 2026-04-23 19:50 | -23.44840 | -70.44258 | 458 ft | 0 kts | 7° |
| 2026-04-23 19:54 | -23.44824 | -70.44260 | 459 ft | 5 kts | 348° |
| 2026-04-23 19:54 | -23.44777 | -70.44281 | 462 ft | 10 kts | 342° |
| 2026-04-23 19:54 | -23.44697 | -70.44305 | 462 ft | 14 kts | 345° |
| 2026-04-23 19:54 | -23.44608 | -70.44331 | 462 ft | 11 kts | 348° |
| 2026-04-23 19:55 | -23.44519 | -70.44330 | 462 ft | 15 kts | 7° |
| 2026-04-23 19:55 | -23.44400 | -70.44315 | 462 ft | 20 kts | 6° |
| 2026-04-23 19:55 | -23.44248 | -70.44296 | 462 ft | 24 kts | 7° |
| 2026-04-23 19:55 | -23.44150 | -70.44284 | 460 ft | 10 kts | 7° |
| 2026-04-23 19:56 | -23.44088 | -70.44276 | 462 ft | 8 kts | 6° |
| 2026-04-23 19:56 | -23.44036 | -70.44270 | 460 ft | 7 kts | 6° |
| 2026-04-23 19:56 | -23.43996 | -70.44265 | 462 ft | 5 kts | 6° |
| 2026-04-23 19:56 | -23.43966 | -70.44261 | 460 ft | 3 kts | 6° |
| 2026-04-23 19:57 | -23.43945 | -70.44259 | 462 ft | 3 kts | 6° |
| 2026-04-23 19:57 | -23.43924 | -70.44256 | 462 ft | 5 kts | 7° |
| 2026-04-23 19:57 | -23.43855 | -70.44248 | 462 ft | 14 kts | 6° |
| 2026-04-23 19:57 | -23.43750 | -70.44236 | 461 ft | 14 kts | 6° |
| 2026-04-23 19:58 | -23.43656 | -70.44224 | 461 ft | 13 kts | 6° |
| 2026-04-23 19:58 | -23.43572 | -70.44213 | 461 ft | 11 kts | 6° |
| 2026-04-23 19:58 | -23.43499 | -70.44204 | 462 ft | 10 kts | 6° |
| 2026-04-23 19:58 | -23.43437 | -70.44197 | 462 ft | 8 kts | 6° |
| 2026-04-23 19:59 | -23.43387 | -70.44193 | 462 ft | 6 kts | 357° |
| 2026-04-23 19:59 | -23.43353 | -70.44211 | 462 ft | 5 kts | 322° |
| 2026-04-23 19:59 | -23.43331 | -70.44230 | 462 ft | 3 kts | 322° |
| 2026-04-23 19:59 | -23.43315 | -70.44243 | 460 ft | 2 kts | 322° |
| 2026-04-23 20:00 | -23.43307 | -70.44250 | 462 ft | 1 kts | 322° |
| 2026-04-23 20:00 | -23.43300 | -70.44256 | 461 ft | 4 kts | 323° |
| 2026-04-23 20:00 | -23.43265 | -70.44296 | 459 ft | 9 kts | 294° |
| 2026-04-23 20:00 | -23.43285 | -70.44353 | 462 ft | 9 kts | 237° |
| 2026-04-23 20:01 | -23.43328 | -70.44377 | 461 ft | 6 kts | 186° |
| 2026-04-23 20:01 | -23.43332 | -70.44377 | 461 ft | 0 kts | 186° |
| 2026-04-23 20:03 | -23.43348 | -70.44379 | 461 ft | 18 kts | 186° |
| 2026-04-23 20:03 | -23.43732 | -70.44426 | 464 ft | 89 kts | 186° |
| 2026-04-23 20:04 | -23.44541 | -70.44525 | 461 ft | 143 kts | 186° |
| 2026-04-23 20:04 | -23.45599 | -70.44661 | 930 ft | 150 kts | 186° |
| 2026-04-23 20:04 | -23.46626 | -70.44889 | 1601 ft | 152 kts | 200° |
| 2026-04-23 20:04 | -23.47649 | -70.45346 | 2035 ft | 169 kts | 205° |
| 2026-04-23 20:05 | -23.48789 | -70.45909 | 2363 ft | 191 kts | 205° |
| 2026-04-23 20:05 | -23.50067 | -70.46545 | 2604 ft | 214 kts | 204° |
| 2026-04-23 20:05 | -23.51502 | -70.47253 | 2924 ft | 239 kts | 205° |
| 2026-04-23 20:05 | -23.53081 | -70.48025 | 3447 ft | 254 kts | 205° |
| 2026-04-23 20:06 | -23.54699 | -70.48808 | 4205 ft | 260 kts | 204° |
| 2026-04-23 20:06 | -23.56365 | -70.49609 | 4996 ft | 264 kts | 204° |
| 2026-04-23 20:06 | -23.58059 | -70.50419 | 5707 ft | 268 kts | 204° |
| 2026-04-23 20:06 | -23.59782 | -70.51242 | 6424 ft | 272 kts | 204° |
| 2026-04-23 20:07 | -23.61535 | -70.52078 | 7098 ft | 277 kts | 204° |
| 2026-04-23 20:07 | -23.63307 | -70.52921 | 7806 ft | 280 kts | 204° |
| 2026-04-23 20:07 | -23.65102 | -70.53780 | 8494 ft | 284 kts | 204° |
| 2026-04-23 20:07 | -23.66927 | -70.54652 | 9200 ft | 288 kts | 204° |
| 2026-04-23 20:08 | -23.68775 | -70.55535 | 9905 ft | 292 kts | 205° |
| 2026-04-23 20:08 | -23.70677 | -70.56445 | 10285 ft | 308 kts | 204° |
| 2026-04-23 20:08 | -23.72717 | -70.57420 | 10430 ft | 331 kts | 204° |
| 2026-04-23 20:08 | -23.74874 | -70.58449 | 10830 ft | 343 kts | 205° |
| 2026-04-23 20:09 | -23.77073 | -70.59498 | 11407 ft | 348 kts | 205° |
| 2026-04-23 20:09 | -23.79303 | -70.60562 | 12020 ft | 352 kts | 204° |
| 2026-04-23 20:09 | -23.81560 | -70.61640 | 12633 ft | 355 kts | 204° |
| 2026-04-23 20:09 | -23.83833 | -70.62727 | 13232 ft | 359 kts | 205° |
| 2026-04-23 20:10 | -23.85356 | -70.63457 | 13622 ft | 362 kts | 205° |
| 2026-04-23 20:10 | -23.88455 | -70.64946 | 14348 ft | 366 kts | 205° |
| 2026-04-23 20:10 | -23.90763 | -70.66053 | 14881 ft | 368 kts | 206° |
| 2026-04-23 20:10 | -23.93115 | -70.67181 | 15420 ft | 370 kts | 206° |
| 2026-04-23 20:11 | -23.95484 | -70.68319 | 15963 ft | 373 kts | 205° |
| 2026-04-23 20:11 | -23.97869 | -70.69463 | 16486 ft | 376 kts | 206° |
| 2026-04-23 20:11 | -24.00275 | -70.70615 | 17000 ft | 379 kts | 206° |
| 2026-04-23 20:11 | -24.02702 | -70.71776 | 17520 ft | 381 kts | 206° |
| 2026-04-23 20:12 | -24.05139 | -70.72945 | 18026 ft | 384 kts | 206° |
| 2026-04-23 20:12 | -24.07594 | -70.74125 | 18501 ft | 387 kts | 206° |
| 2026-04-23 20:12 | -24.10069 | -70.75318 | 18942 ft | 389 kts | 206° |
| 2026-04-23 20:12 | -24.12559 | -70.76518 | 19366 ft | 392 kts | 207° |
| 2026-04-23 20:13 | -24.15066 | -70.77729 | 19791 ft | 395 kts | 207° |
| 2026-04-23 20:13 | -24.17589 | -70.78947 | 20216 ft | 397 kts | 207° |
| 2026-04-23 20:13 | -24.20124 | -70.80169 | 20631 ft | 400 kts | 207° |
| 2026-04-23 20:13 | -24.22685 | -70.81401 | 21041 ft | 403 kts | 207° |
| 2026-04-23 20:14 | -24.25223 | -70.82621 | 21439 ft | 405 kts | 208° |
| 2026-04-23 20:14 | -24.27816 | -70.83870 | 21851 ft | 408 kts | 208° |
| 2026-04-23 20:14 | -24.30422 | -70.85126 | 22260 ft | 410 kts | 208° |
| 2026-04-23 20:14 | -24.33041 | -70.86389 | 22658 ft | 413 kts | 208° |
| 2026-04-23 20:15 | -24.35679 | -70.87661 | 23049 ft | 415 kts | 208° |
| 2026-04-23 20:15 | -24.38436 | -70.88708 | 23431 ft | 424 kts | 199° |
| 2026-04-23 20:15 | -24.41378 | -70.89228 | 23805 ft | 432 kts | 189° |
| 2026-04-23 20:15 | -24.44380 | -70.89504 | 24160 ft | 433 kts | 190° |
| 2026-04-23 20:16 | -24.47393 | -70.89785 | 24511 ft | 435 kts | 190° |
| 2026-04-23 20:16 | -24.50407 | -70.90068 | 24849 ft | 436 kts | 191° |
| 2026-04-23 20:16 | -24.53439 | -70.90352 | 25199 ft | 437 kts | 191° |
| 2026-04-23 20:16 | -24.56477 | -70.90640 | 25534 ft | 438 kts | 191° |
| 2026-04-23 20:17 | -24.59520 | -70.90929 | 25869 ft | 440 kts | 191° |
| 2026-04-23 20:17 | -24.62572 | -70.91219 | 26190 ft | 441 kts | 192° |
| 2026-04-23 20:17 | -24.65633 | -70.91511 | 26510 ft | 442 kts | 192° |
| 2026-04-23 20:17 | -24.68706 | -70.91804 | 26818 ft | 444 kts | 192° |
| 2026-04-23 20:18 | -24.71790 | -70.92098 | 27163 ft | 445 kts | 193° |
| 2026-04-23 20:18 | -24.74876 | -70.92390 | 27492 ft | 446 kts | 193° |
| 2026-04-23 20:18 | -24.77978 | -70.92676 | 27796 ft | 447 kts | 193° |
| 2026-04-23 20:18 | -24.81084 | -70.92960 | 28112 ft | 449 kts | 193° |
| 2026-04-23 20:19 | -24.84202 | -70.93249 | 28410 ft | 450 kts | 193° |
| 2026-04-23 20:19 | -24.87325 | -70.93541 | 28706 ft | 451 kts | 193° |
| 2026-04-23 20:19 | -24.90417 | -70.93831 | 28995 ft | 453 kts | 194° |
| 2026-04-23 20:19 | -24.93562 | -70.94125 | 29274 ft | 454 kts | 194° |
| 2026-04-23 20:20 | -24.96728 | -70.94423 | 29537 ft | 455 kts | 194° |
| 2026-04-23 20:20 | -24.99887 | -70.94724 | 29792 ft | 456 kts | 194° |
| 2026-04-23 20:20 | -25.03060 | -70.95031 | 30089 ft | 457 kts | 195° |
| 2026-04-23 20:20 | -25.06229 | -70.95335 | 30314 ft | 458 kts | 195° |
| 2026-04-23 20:21 | -25.09413 | -70.95637 | 30501 ft | 460 kts | 195° |
| 2026-04-23 20:21 | -25.12608 | -70.95937 | 30687 ft | 462 kts | 195° |
| 2026-04-23 20:21 | -25.14732 | -70.96137 | 30807 ft | 463 kts | 195° |
| 2026-04-23 20:21 | -25.17945 | -70.96442 | 31043 ft | 463 kts | 195° |
| 2026-04-23 20:22 | -25.22242 | -70.96851 | 31387 ft | 463 kts | 195° |
| 2026-04-23 20:22 | -25.24369 | -70.97052 | 31560 ft | 463 kts | 195° |
| 2026-04-23 20:22 | -25.28626 | -70.97459 | 31895 ft | 463 kts | 195° |
| 2026-04-23 20:22 | -25.30794 | -70.97668 | 32094 ft | 463 kts | 195° |
| 2026-04-23 20:23 | -25.34009 | -70.97976 | 32370 ft | 463 kts | 195° |
| 2026-04-23 20:23 | -25.37177 | -70.98277 | 32633 ft | 463 kts | 195° |
| 2026-04-23 20:23 | -25.40387 | -70.98581 | 32888 ft | 463 kts | 195° |
| 2026-04-23 20:23 | -25.43598 | -70.98883 | 33143 ft | 463 kts | 195° |
| 2026-04-23 20:24 | -25.46811 | -70.99190 | 33398 ft | 463 kts | 195° |
| 2026-04-23 20:24 | -25.50028 | -70.99499 | 33660 ft | 464 kts | 195° |
| 2026-04-23 20:24 | -25.53242 | -70.99806 | 33918 ft | 464 kts | 195° |
| 2026-04-23 20:24 | -25.56459 | -71.00114 | 34164 ft | 464 kts | 195° |
| 2026-04-23 20:25 | -25.59674 | -71.00420 | 34380 ft | 464 kts | 195° |
| 2026-04-23 20:25 | -25.62893 | -71.00727 | 34631 ft | 464 kts | 196° |
| 2026-04-23 20:25 | -25.66113 | -71.01037 | 34844 ft | 465 kts | 196° |
| 2026-04-23 20:25 | -25.69337 | -71.01345 | 35016 ft | 465 kts | 196° |
| 2026-04-23 20:26 | -25.72559 | -71.01650 | 35070 ft | 463 kts | 196° |
| 2026-04-23 20:26 | -25.78968 | -71.02260 | 35076 ft | 461 kts | 196° |
| 2026-04-23 20:27 | -25.85322 | -71.02877 | 35077 ft | 461 kts | 196° |
| 2026-04-23 20:27 | -25.91717 | -71.03498 | 35094 ft | 461 kts | 197° |
| 2026-04-23 20:28 | -25.98102 | -71.04116 | 35082 ft | 460 kts | 197° |
| 2026-04-23 20:28 | -26.04484 | -71.04746 | 35079 ft | 460 kts | 197° |
| 2026-04-23 20:29 | -26.10869 | -71.05368 | 35078 ft | 461 kts | 197° |
| 2026-04-23 20:29 | -26.17215 | -71.05977 | 35077 ft | 461 kts | 197° |
| 2026-04-23 20:30 | -26.23595 | -71.06595 | 35099 ft | 460 kts | 198° |
| 2026-04-23 20:30 | -26.33160 | -71.07524 | 35092 ft | 460 kts | 197° |
| 2026-04-23 20:31 | -26.39535 | -71.08143 | 35089 ft | 459 kts | 197° |
| 2026-04-23 20:31 | -26.45909 | -71.08756 | 35088 ft | 460 kts | 197° |
| 2026-04-23 20:32 | -26.52287 | -71.09380 | 35116 ft | 460 kts | 198° |
| 2026-04-23 20:32 | -26.58621 | -71.10008 | 35111 ft | 460 kts | 198° |
| 2026-04-23 20:33 | -26.64993 | -71.10630 | 35098 ft | 460 kts | 198° |
| 2026-04-23 20:33 | -26.71363 | -71.11253 | 35096 ft | 459 kts | 198° |
| 2026-04-23 20:34 | -26.77727 | -71.11877 | 35092 ft | 459 kts | 198° |
| 2026-04-23 20:34 | -26.84089 | -71.12505 | 35114 ft | 459 kts | 199° |
| 2026-04-23 20:35 | -26.90455 | -71.13131 | 35106 ft | 459 kts | 199° |
| 2026-04-23 20:35 | -26.96820 | -71.13759 | 35098 ft | 459 kts | 199° |
| 2026-04-23 20:36 | -27.03182 | -71.14384 | 35094 ft | 459 kts | 199° |
| 2026-04-23 20:36 | -27.09544 | -71.15012 | 35091 ft | 459 kts | 199° |
| 2026-04-23 20:37 | -27.15863 | -71.15637 | 35092 ft | 459 kts | 199° |
| 2026-04-23 20:37 | -27.22229 | -71.16269 | 35092 ft | 459 kts | 199° |
| 2026-04-23 20:38 | -27.28589 | -71.16898 | 35091 ft | 459 kts | 199° |
| 2026-04-23 20:38 | -27.34949 | -71.17526 | 35091 ft | 459 kts | 199° |
| 2026-04-23 20:39 | -27.41311 | -71.18156 | 35119 ft | 459 kts | 199° |
| 2026-04-23 20:39 | -27.47676 | -71.18790 | 35109 ft | 459 kts | 199° |
| 2026-04-23 20:40 | -27.54044 | -71.19423 | 35107 ft | 459 kts | 199° |
| 2026-04-23 20:40 | -27.60413 | -71.20055 | 35103 ft | 459 kts | 199° |
| 2026-04-23 20:41 | -27.66778 | -71.20692 | 35131 ft | 459 kts | 200° |
| 2026-04-23 20:41 | -27.73138 | -71.21330 | 35123 ft | 458 kts | 200° |
| 2026-04-23 20:42 | -27.79490 | -71.21966 | 35111 ft | 458 kts | 199° |
| 2026-04-23 20:42 | -27.85837 | -71.22596 | 35104 ft | 458 kts | 199° |
| 2026-04-23 20:43 | -27.92187 | -71.23230 | 35097 ft | 458 kts | 200° |
| 2026-04-23 20:43 | -27.98535 | -71.23872 | 35135 ft | 457 kts | 200° |
| 2026-04-23 20:44 | -28.04871 | -71.24508 | 35123 ft | 457 kts | 200° |
| 2026-04-23 20:44 | -28.11204 | -71.25144 | 35116 ft | 456 kts | 200° |
| 2026-04-23 20:45 | -28.17485 | -71.25780 | 35113 ft | 455 kts | 200° |
| 2026-04-23 20:45 | -28.23801 | -71.26420 | 35124 ft | 455 kts | 200° |
| 2026-04-23 20:46 | -28.30081 | -71.27050 | 35093 ft | 452 kts | 200° |
| 2026-04-23 20:46 | -28.36354 | -71.27682 | 35090 ft | 452 kts | 200° |
| 2026-04-23 20:47 | -28.42630 | -71.28313 | 35086 ft | 452 kts | 200° |
| 2026-04-23 20:47 | -28.48905 | -71.28946 | 35086 ft | 453 kts | 200° |
| 2026-04-23 20:48 | -28.55178 | -71.29583 | 35124 ft | 453 kts | 200° |
| 2026-04-23 20:48 | -28.61472 | -71.30215 | 35112 ft | 453 kts | 200° |
| 2026-04-23 20:49 | -28.67705 | -71.30860 | 35106 ft | 453 kts | 200° |
| 2026-04-23 20:49 | -28.73992 | -71.31508 | 35103 ft | 453 kts | 200° |
| 2026-04-23 20:50 | -28.80279 | -71.32145 | 35128 ft | 454 kts | 200° |
| 2026-04-23 20:50 | -28.86561 | -71.32783 | 35104 ft | 453 kts | 200° |
| 2026-04-23 20:51 | -28.92834 | -71.33424 | 35105 ft | 452 kts | 200° |
| 2026-04-23 20:51 | -28.99107 | -71.34068 | 35099 ft | 453 kts | 200° |
| 2026-04-23 20:52 | -29.05388 | -71.34711 | 35092 ft | 453 kts | 200° |
| 2026-04-23 20:52 | -29.11673 | -71.35355 | 35118 ft | 454 kts | 199° |
| 2026-04-23 20:53 | -29.17963 | -71.36001 | 35103 ft | 454 kts | 199° |
| 2026-04-23 20:53 | -29.24258 | -71.36647 | 35103 ft | 454 kts | 199° |
| 2026-04-23 20:54 | -29.30520 | -71.37289 | 35101 ft | 454 kts | 199° |
| 2026-04-23 20:54 | -29.36814 | -71.37931 | 35147 ft | 454 kts | 198° |
| 2026-04-23 20:55 | -29.43116 | -71.38582 | 35123 ft | 455 kts | 198° |
| 2026-04-23 20:55 | -29.49418 | -71.39242 | 35112 ft | 455 kts | 198° |
| 2026-04-23 20:56 | -29.55730 | -71.39893 | 35111 ft | 455 kts | 198° |
| 2026-04-23 20:56 | -29.62048 | -71.40538 | 35110 ft | 455 kts | 198° |
| 2026-04-23 20:57 | -29.68364 | -71.41197 | 35141 ft | 456 kts | 198° |
| 2026-04-23 20:57 | -29.74675 | -71.41851 | 35130 ft | 455 kts | 198° |
| 2026-04-23 20:58 | -29.80984 | -71.42506 | 35122 ft | 455 kts | 198° |
| 2026-04-23 20:58 | -29.87293 | -71.43161 | 35118 ft | 455 kts | 198° |
| 2026-04-23 20:59 | -29.93607 | -71.43813 | 35111 ft | 455 kts | 198° |
| 2026-04-23 20:59 | -29.99877 | -71.44463 | 35107 ft | 455 kts | 198° |
| 2026-04-23 21:00 | -30.06177 | -71.45121 | 35106 ft | 455 kts | 198° |
| 2026-04-23 21:00 | -30.12478 | -71.45783 | 35099 ft | 455 kts | 198° |
| 2026-04-23 21:01 | -30.18788 | -71.46444 | 35146 ft | 455 kts | 197° |
| 2026-04-23 21:01 | -30.25099 | -71.47108 | 35135 ft | 455 kts | 197° |
| 2026-04-23 21:02 | -30.31381 | -71.47903 | 35120 ft | 450 kts | 200° |
| 2026-04-23 21:02 | -30.37525 | -71.49111 | 35111 ft | 446 kts | 202° |
| 2026-04-23 21:03 | -30.43636 | -71.50429 | 35108 ft | 447 kts | 202° |
| 2026-04-23 21:03 | -30.49772 | -71.51663 | 35113 ft | 449 kts | 201° |
| 2026-04-23 21:04 | -30.55936 | -71.52832 | 35100 ft | 449 kts | 201° |
| 2026-04-23 21:04 | -30.62112 | -71.54002 | 35095 ft | 449 kts | 201° |
| 2026-04-23 21:05 | -30.68238 | -71.55190 | 35097 ft | 450 kts | 201° |
| 2026-04-23 21:05 | -30.74416 | -71.56401 | 35146 ft | 450 kts | 200° |
| 2026-04-23 21:06 | -30.80596 | -71.57601 | 35125 ft | 451 kts | 200° |
| 2026-04-23 21:06 | -30.86780 | -71.58803 | 35113 ft | 450 kts | 200° |
| 2026-04-23 21:07 | -30.92965 | -71.60004 | 35110 ft | 450 kts | 200° |
| 2026-04-23 21:07 | -30.99147 | -71.61210 | 35109 ft | 450 kts | 200° |
| 2026-04-23 21:08 | -31.05333 | -71.62413 | 35138 ft | 450 kts | 199° |
| 2026-04-23 21:08 | -31.11520 | -71.63620 | 35127 ft | 450 kts | 199° |
| 2026-04-23 21:09 | -31.17706 | -71.64825 | 35128 ft | 451 kts | 199° |
| 2026-04-23 21:09 | -31.23856 | -71.66032 | 35121 ft | 450 kts | 199° |
| 2026-04-23 21:10 | -31.30041 | -71.67250 | 35152 ft | 450 kts | 198° |
| 2026-04-23 21:10 | -31.35219 | -71.68266 | 35145 ft | 451 kts | 198° |
| 2026-04-23 21:11 | -31.41406 | -71.69477 | 35150 ft | 450 kts | 198° |
| 2026-04-23 21:11 | -31.47543 | -71.70682 | 35149 ft | 450 kts | 198° |
| 2026-04-23 21:12 | -31.53721 | -71.71901 | 35151 ft | 450 kts | 198° |
| 2026-04-23 21:12 | -31.59897 | -71.73131 | 35179 ft | 450 kts | 198° |
| 2026-04-23 21:13 | -31.66063 | -71.74361 | 35163 ft | 449 kts | 198° |
| 2026-04-23 21:13 | -31.72229 | -71.75577 | 35164 ft | 449 kts | 198° |
| 2026-04-23 21:14 | -31.78394 | -71.76790 | 35156 ft | 449 kts | 198° |
| 2026-04-23 21:14 | -31.84550 | -71.78010 | 35180 ft | 448 kts | 197° |
| 2026-04-23 21:15 | -31.90697 | -71.79227 | 35170 ft | 447 kts | 197° |
| 2026-04-23 21:15 | -31.96831 | -71.80442 | 35167 ft | 446 kts | 197° |
| 2026-04-23 21:16 | -32.02912 | -71.81654 | 35162 ft | 446 kts | 197° |
| 2026-04-23 21:16 | -32.09037 | -71.82880 | 35155 ft | 446 kts | 197° |
| 2026-04-23 21:17 | -32.15149 | -71.84103 | 35172 ft | 445 kts | 197° |
| 2026-04-23 21:17 | -32.21260 | -71.85319 | 35165 ft | 445 kts | 197° |
| 2026-04-23 21:18 | -32.27359 | -71.86540 | 35159 ft | 444 kts | 197° |
| 2026-04-23 21:18 | -32.33452 | -71.87763 | 35154 ft | 444 kts | 197° |
| 2026-04-23 21:19 | -32.39538 | -71.88988 | 35167 ft | 443 kts | 197° |
| 2026-04-23 21:19 | -32.45626 | -71.90212 | 35159 ft | 443 kts | 197° |
| 2026-04-23 21:20 | -32.51696 | -71.91439 | 35159 ft | 442 kts | 196° |
| 2026-04-23 21:20 | -32.57754 | -71.92655 | 35154 ft | 441 kts | 196° |
| 2026-04-23 21:21 | -32.63806 | -71.93873 | 35146 ft | 441 kts | 196° |
| 2026-04-23 21:21 | -32.69845 | -71.95097 | 35138 ft | 440 kts | 196° |
| 2026-04-23 21:22 | -32.75883 | -71.96321 | 35132 ft | 440 kts | 196° |
| 2026-04-23 21:22 | -32.81919 | -71.97539 | 35126 ft | 440 kts | 196° |
| 2026-04-23 21:23 | -32.87953 | -71.98768 | 35132 ft | 440 kts | 196° |
| 2026-04-23 21:23 | -32.93982 | -71.99998 | 35159 ft | 440 kts | 196° |
| 2026-04-23 21:24 | -33.00011 | -72.01232 | 35155 ft | 439 kts | 196° |
| 2026-04-23 21:24 | -33.06033 | -72.02452 | 35152 ft | 439 kts | 196° |
| 2026-04-23 21:25 | -33.12023 | -72.03668 | 35146 ft | 439 kts | 196° |
| 2026-04-23 21:25 | -33.18048 | -72.04900 | 35170 ft | 439 kts | 196° |
| 2026-04-23 21:26 | -33.24063 | -72.06138 | 35168 ft | 438 kts | 196° |
| 2026-04-23 21:26 | -33.30072 | -72.07375 | 35163 ft | 438 kts | 196° |
| 2026-04-23 21:27 | -33.36082 | -72.08612 | 35160 ft | 438 kts | 196° |
| 2026-04-23 21:27 | -33.42099 | -72.09842 | 35178 ft | 438 kts | 195° |
| 2026-04-23 21:28 | -33.48113 | -72.11075 | 35176 ft | 438 kts | 195° |
| 2026-04-23 21:28 | -33.54114 | -72.12318 | 35177 ft | 438 kts | 195° |
| 2026-04-23 21:29 | -33.60118 | -72.13558 | 35179 ft | 438 kts | 195° |
| 2026-04-23 21:29 | -33.66121 | -72.14800 | 35176 ft | 438 kts | 195° |
| 2026-04-23 21:30 | -33.72088 | -72.16044 | 35187 ft | 437 kts | 195° |
| 2026-04-23 21:30 | -33.78084 | -72.17291 | 35179 ft | 437 kts | 195° |
| 2026-04-23 21:31 | -33.84082 | -72.18526 | 35179 ft | 437 kts | 195° |
| 2026-04-23 21:31 | -33.90081 | -72.19768 | 35171 ft | 437 kts | 195° |